OIZB Airport Information

Runway Information
Runway 16 Length 9848 ft width 148 ft
Elevation 1628 ft Threshold 0 ft Heading 167
Runway 34 Length 9848 ft Width 148 ft
Elevation 1628 ft Threshold 0 ft Heading 347
Airport Frequencies
Type AFIS Name INFO Frequency 118.35 MHZ
Airport Navaids
Type NDB Name Zabol Frequency 295 KHZ
Airport Weather Information & NOTAM
ADDS - METARS form results

(2055 UTC 12 December 2018)
Data provider http://aviationweather.gov/metar/data/
 
METAR text: OIZB 122000Z 13004KT CAVOK 06/M05 Q1022
Conditions at: OIZB (ZABOL , IR) observed 2000 UTC 12 December 2018
Temperature: 6.0°C (43°F)
Dewpoint: -5.0°C (23°F) [RH = 45%]
Pressure (altimeter): 30.18 inches Hg (1022.0 mb)
Winds: from the SE (130 degrees) at 5 MPH (4 knots; 2.1 m/s)
Visibility: 6 or more miles (10+ km)
Ceiling: ceiling and visibility are OK
Clouds: unknown
Weather: no significant weather observed at this time